createdAt,value
2022-08-01T00:00:53.232Z,74.70
2022-08-01T00:03:55.867Z,74.77
2022-08-01T00:06:58.242Z,75.12
2022-08-01T00:10:02.604Z,74.87
2022-08-01T00:13:04.999Z,74.64
2022-08-01T00:16:07.741Z,74.70
2022-08-01T00:19:10.027Z,74.47
2022-08-01T00:22:12.634Z,74.72
2022-08-01T00:25:15.063Z,74.63
2022-08-01T00:28:17.656Z,74.80
2022-08-01T00:31:21.362Z,75.24
2022-08-01T00:34:24.036Z,75.84
2022-08-01T00:37:26.350Z,76.52
2022-08-01T00:40:29.216Z,75.84
2022-08-01T00:43:31.560Z,76.54
2022-08-01T00:46:34.467Z,76.58
2022-08-01T00:49:36.913Z,76.76
2022-08-01T00:52:40.784Z,77.62
2022-08-01T00:55:43.559Z,77.75
2022-08-01T00:58:46.228Z,78.19
2022-08-01T01:01:50.009Z,79.17
2022-08-01T01:04:52.751Z,80.28
2022-08-01T01:07:57.833Z,79.96
2022-08-01T01:11:04.632Z,80.55
2022-08-01T01:14:11.070Z,81.28
2022-08-01T01:17:15.988Z,80.52
2022-08-01T01:20:19.261Z,80.65
2022-08-01T01:23:37.078Z,81.11
2022-08-01T01:26:58.275Z,79.36
2022-08-01T01:30:01.833Z,79.33
2022-08-01T01:33:06.737Z,78.86
2022-08-01T01:36:11.443Z,79.34
2022-08-01T01:39:15.216Z,79.75
2022-08-01T01:42:18.472Z,80.73
2022-08-01T01:45:22.428Z,80.26
2022-08-01T01:48:26.128Z,80.24
2022-08-01T01:51:29.642Z,79.75
2022-08-01T01:54:34.273Z,78.85
2022-08-01T01:57:39.025Z,77.84
2022-08-01T02:00:43.359Z,77.78
2022-08-01T02:03:50.699Z,78.09
2022-08-01T02:06:53.602Z,78.64
2022-08-01T02:09:56.997Z,78.51
2022-08-01T02:13:00.787Z,77.19
2022-08-01T02:16:04.056Z,76.13
2022-08-01T02:19:07.219Z,75.47
2022-08-01T02:25:23.583Z,75.80
2022-08-01T02:28:30.539Z,74.90
2022-08-01T02:31:34.993Z,76.10
2022-08-01T02:34:37.242Z,76.18
2022-08-01T02:37:41.675Z,76.83
2022-08-01T02:40:49.842Z,76.38
2022-08-01T02:43:53.760Z,76.06
2022-08-01T02:46:58.630Z,77.19
2022-08-01T02:50:01.807Z,77.52
2022-08-01T02:53:04.995Z,78.88
2022-08-01T02:56:09.021Z,79.24
2022-08-01T02:59:15.276Z,78.84
2022-08-01T03:02:18.334Z,79.27
2022-08-01T03:05:21.033Z,79.62
2022-08-01T03:08:24.850Z,79.59
2022-08-01T03:11:29.355Z,80.49
2022-08-01T03:14:35.378Z,80.92
2022-08-01T03:17:38.811Z,82.46
2022-08-01T03:20:42.682Z,82.91
2022-08-01T03:23:46.408Z,82.83
2022-08-01T03:26:49.695Z,82.76
2022-08-01T03:29:52.955Z,84.42
2022-08-01T03:32:56.481Z,84.17
2022-08-01T03:36:01.163Z,84.57
2022-08-01T03:39:04.756Z,84.41
2022-08-01T03:42:11.059Z,84.98
2022-08-01T03:45:24.359Z,85.81
2022-08-01T03:48:29.480Z,86.37
2022-08-01T03:51:33.019Z,85.34
2022-08-01T03:54:37.411Z,85.00
2022-08-01T03:57:40.220Z,85.09
2022-08-01T04:00:42.911Z,84.80
2022-08-01T04:03:45.954Z,84.69
2022-08-01T04:06:51.458Z,84.47
2022-08-01T04:09:54.287Z,83.61
2022-08-01T04:12:56.659Z,82.30
2022-08-01T04:15:59.364Z,81.54
2022-08-01T04:19:01.870Z,81.43
2022-08-01T04:22:05.763Z,80.92
2022-08-01T04:25:10.356Z,81.28
2022-08-01T04:28:17.293Z,80.82
2022-08-01T04:31:20.039Z,80.20
2022-08-01T04:34:23.973Z,80.43
2022-08-01T04:37:26.802Z,80.55
2022-08-01T04:40:30.434Z,79.60
2022-08-01T04:43:32.830Z,79.42
2022-08-01T04:46:35.926Z,79.06
2022-08-01T04:49:49.153Z,78.99
2022-08-01T04:52:52.611Z,79.25
2022-08-01T04:55:54.967Z,78.83
2022-08-01T04:59:19.796Z,77.93
2022-08-01T05:02:22.496Z,77.18
2022-08-01T05:05:27.219Z,76.11
2022-08-01T05:08:29.581Z,73.18
2022-08-01T05:11:32.231Z,61.41
2022-08-01T05:14:34.635Z,54.48
2022-08-01T05:17:37.472Z,57.19
2022-08-01T05:20:39.905Z,61.23
2022-08-01T05:23:43.641Z,63.28
2022-08-01T05:26:45.997Z,64.08
2022-08-01T05:29:50.854Z,64.77
2022-08-01T05:32:53.751Z,65.98
2022-08-01T05:35:56.294Z,66.57
2022-08-01T05:38:58.614Z,67.35
2022-08-01T05:42:01.209Z,66.85
2022-08-01T05:45:03.668Z,66.28
2022-08-01T05:48:06.542Z,63.88
2022-08-01T05:51:08.862Z,62.63
2022-08-01T05:54:11.511Z,62.37
2022-08-01T05:57:13.848Z,62.98
2022-08-01T06:00:18.135Z,62.77
2022-08-01T06:03:20.839Z,61.46
2022-08-01T06:06:25.523Z,60.96
2022-08-01T06:09:28.277Z,60.48
2022-08-01T06:12:35.614Z,58.90
2022-08-01T06:15:38.533Z,59.39
2022-08-01T06:18:41.160Z,59.50
2022-08-01T06:21:43.771Z,60.46
2022-08-01T06:24:46.086Z,60.33
2022-08-01T06:27:49.072Z,60.75
2022-08-01T06:30:51.624Z,60.02
2022-08-01T06:33:54.170Z,59.44
2022-08-01T06:36:56.481Z,58.51
2022-08-01T06:40:14.771Z,58.87
2022-08-01T06:43:20.345Z,57.69
2022-08-01T06:46:22.935Z,56.91
2022-08-01T06:49:25.679Z,57.21
2022-08-01T06:52:28.248Z,55.58
2022-08-01T06:55:30.674Z,54.53
2022-08-01T06:58:35.360Z,53.71
2022-08-01T07:01:37.945Z,50.95
2022-08-01T07:04:40.640Z,37.70
2022-08-01T07:07:43.063Z,27.47
2022-08-01T07:10:46.680Z,24.20
2022-08-01T07:13:49.218Z,24.17
2022-08-01T07:16:51.905Z,21.83
2022-08-01T07:19:55.517Z,21.54
2022-08-01T07:23:00.479Z,21.96
2022-08-01T07:26:04.630Z,23.25
2022-08-01T07:29:07.239Z,20.63
2022-08-01T07:32:09.735Z,18.92
2022-08-01T07:35:12.345Z,19.45
2022-08-01T07:38:17.780Z,19.02
2022-08-01T07:41:20.424Z,17.33
2022-08-01T07:44:22.690Z,17.68
2022-08-01T07:47:26.216Z,16.76
2022-08-01T07:50:28.770Z,16.25
2022-08-01T07:53:36.200Z,15.11
2022-08-01T07:56:38.759Z,15.39
2022-08-01T07:59:41.383Z,13.69
2022-08-01T08:02:43.804Z,15.57
2022-08-01T08:05:58.346Z,15.80
2022-08-01T08:09:02.641Z,14.22
2022-08-01T08:12:06.141Z,12.63
2022-08-01T08:15:08.840Z,14.17
2022-08-01T08:18:11.783Z,15.23
2022-08-01T08:21:14.245Z,15.85
2022-08-01T08:24:26.337Z,19.24
2022-08-01T08:27:29.230Z,22.59
2022-08-01T08:30:32.063Z,26.61
2022-08-01T08:33:34.364Z,30.04
2022-08-01T08:36:36.957Z,33.83
2022-08-01T08:39:41.537Z,36.99
2022-08-01T08:42:45.282Z,37.85
2022-08-01T08:45:58.755Z,39.39
2022-08-01T08:49:04.629Z,39.25
2022-08-01T08:52:10.654Z,39.57
2022-08-01T08:55:15.634Z,40.41
2022-08-01T08:58:19.059Z,40.77
2022-08-01T09:01:22.834Z,41.25
2022-08-01T09:04:26.641Z,41.58
2022-08-01T09:07:29.521Z,41.01
2022-08-01T09:10:32.281Z,41.36
2022-08-01T09:13:37.699Z,40.15
2022-08-01T09:16:48.998Z,39.73
2022-08-01T09:19:54.504Z,39.61
2022-08-01T09:22:57.170Z,39.96
2022-08-01T09:25:59.987Z,40.50
2022-08-01T09:29:04.036Z,40.84
2022-08-01T09:32:14.013Z,39.46
2022-08-01T09:35:43.415Z,40.39
2022-08-01T09:38:50.850Z,40.79
2022-08-01T09:41:54.889Z,41.29
2022-08-01T09:44:58.926Z,40.45
2022-08-01T09:48:06.869Z,38.85
2022-08-01T09:51:14.005Z,37.19
2022-08-01T09:54:36.393Z,35.16
2022-08-01T09:57:39.696Z,35.56
2022-08-01T10:00:45.628Z,34.21
2022-08-01T10:04:04.912Z,35.59
2022-08-01T10:07:08.797Z,36.04
2022-08-01T10:10:12.653Z,36.29
2022-08-01T10:13:16.706Z,35.11
2022-08-01T10:16:20.137Z,33.42
2022-08-01T10:19:24.594Z,33.31
2022-08-01T10:22:28.474Z,33.87
2022-08-01T10:25:42.417Z,34.17
2022-08-01T10:28:49.000Z,33.07
2022-08-01T10:31:52.802Z,33.92
2022-08-01T10:34:56.009Z,34.10
2022-08-01T10:37:59.138Z,35.56
2022-08-01T10:41:03.147Z,34.91
2022-08-01T10:44:09.420Z,33.86
2022-08-01T10:47:13.328Z,35.52
2022-08-01T10:50:25.805Z,34.25
2022-08-01T10:53:31.504Z,35.96
2022-08-01T10:56:45.920Z,35.40
2022-08-01T11:00:01.015Z,33.49
2022-08-01T11:03:04.873Z,33.57
2022-08-01T11:06:08.307Z,32.39
2022-08-01T11:09:16.554Z,32.27
2022-08-01T11:12:22.906Z,31.28
2022-08-01T11:15:29.838Z,30.54
2022-08-01T11:18:37.604Z,30.07
2022-08-01T11:21:59.305Z,28.92
2022-08-01T11:25:02.815Z,29.20
2022-08-01T11:28:15.295Z,29.64
2022-08-01T11:31:21.164Z,29.24
2022-08-01T11:34:43.344Z,29.76
2022-08-01T11:37:46.111Z,29.84
2022-08-01T11:40:50.854Z,30.49
2022-08-01T11:44:02.224Z,31.93
2022-08-01T11:47:08.698Z,30.70
2022-08-01T11:50:35.800Z,31.16
2022-08-01T11:53:46.311Z,30.16
2022-08-01T11:56:48.971Z,30.14
2022-08-01T12:00:02.796Z,31.18
2022-08-01T12:03:21.545Z,31.67
2022-08-01T12:06:35.965Z,32.26
2022-08-01T12:09:38.415Z,32.05
2022-08-01T12:13:10.768Z,32.39
2022-08-01T12:16:13.576Z,32.44
2022-08-01T12:19:23.277Z,32.85
2022-08-01T12:22:26.595Z,33.13
2022-08-01T12:25:29.327Z,34.08
2022-08-01T12:28:39.577Z,34.30
2022-08-01T12:31:42.299Z,34.72
2022-08-01T12:34:44.591Z,33.48
2022-08-01T12:37:48.398Z,33.30
2022-08-01T12:40:53.638Z,32.71
2022-08-01T12:43:57.459Z,32.35
2022-08-01T12:47:01.676Z,32.77
2022-08-01T12:50:06.515Z,31.83
2022-08-01T12:53:10.468Z,30.80
2022-08-01T12:56:31.598Z,32.82
2022-08-01T12:59:33.922Z,32.27
2022-08-01T13:02:36.933Z,30.96
2022-08-01T13:05:45.273Z,30.41
2022-08-01T13:08:47.941Z,30.74
2022-08-01T13:12:02.828Z,31.55
2022-08-01T13:15:22.692Z,31.16
2022-08-01T13:18:33.243Z,32.17
2022-08-01T13:21:54.531Z,32.84
2022-08-01T13:25:09.870Z,33.00
2022-08-01T13:28:18.271Z,32.66
2022-08-01T13:31:20.617Z,34.18
2022-08-01T13:34:33.631Z,33.56
2022-08-01T13:37:37.180Z,32.19
2022-08-01T13:40:41.700Z,32.02
2022-08-01T13:43:58.317Z,31.99
2022-08-01T13:47:03.211Z,33.14
2022-08-01T13:50:19.373Z,31.75
2022-08-01T13:53:22.196Z,29.81
2022-08-01T13:56:25.806Z,30.07
2022-08-01T13:59:28.620Z,32.63
2022-08-01T14:02:30.936Z,33.31
2022-08-01T14:05:33.917Z,34.21
2022-08-01T14:08:36.182Z,33.25
2022-08-01T14:11:39.022Z,33.50
2022-08-01T14:14:48.119Z,32.83
2022-08-01T14:17:50.762Z,32.98
2022-08-01T14:20:53.850Z,33.45
2022-08-01T14:23:59.351Z,33.60
2022-08-01T14:27:03.056Z,33.35
2022-08-01T14:30:06.906Z,33.56
2022-08-01T14:33:09.856Z,33.63
2022-08-01T14:36:30.004Z,34.16
2022-08-01T14:39:33.744Z,33.91
2022-08-01T14:42:38.050Z,33.38
2022-08-01T14:45:40.983Z,32.28
2022-08-01T14:48:44.023Z,33.01
2022-08-01T14:51:46.427Z,33.65
2022-08-01T14:54:49.024Z,33.85
2022-08-01T14:57:51.867Z,33.92
2022-08-01T15:00:58.493Z,34.05
2022-08-01T15:04:01.715Z,34.69
2022-08-01T15:07:07.141Z,34.44
2022-08-01T15:10:11.469Z,34.84
2022-08-01T15:13:14.129Z,35.95
2022-08-01T15:16:16.397Z,35.67
2022-08-01T15:19:18.998Z,35.82
2022-08-01T15:22:22.480Z,36.11
2022-08-01T15:25:25.071Z,36.74
2022-08-01T15:28:27.659Z,35.63
2022-08-01T15:31:30.222Z,36.07
2022-08-01T15:34:38.447Z,35.75
2022-08-01T15:37:43.223Z,35.59
2022-08-01T15:40:46.412Z,35.01
2022-08-01T15:43:55.731Z,36.02
2022-08-01T15:46:58.640Z,35.97
2022-08-01T15:50:02.887Z,35.16
2022-08-01T15:53:05.749Z,35.89
2022-08-01T15:56:08.429Z,35.15
2022-08-01T15:59:10.927Z,34.56
2022-08-01T16:02:14.590Z,35.25
2022-08-01T16:05:20.433Z,34.95
2022-08-01T16:08:23.170Z,35.32
2022-08-01T16:11:27.680Z,36.10
2022-08-01T16:14:30.108Z,36.09
2022-08-01T16:17:32.645Z,36.07
2022-08-01T16:20:35.307Z,36.27
2022-08-01T16:23:41.365Z,36.31
2022-08-01T16:26:43.685Z,36.71
2022-08-01T16:29:46.350Z,36.09
2022-08-01T16:32:52.479Z,36.75
2022-08-01T16:36:03.703Z,37.05
2022-08-01T16:39:07.716Z,37.38
2022-08-01T16:42:10.887Z,37.34
2022-08-01T16:45:14.607Z,37.29
2022-08-01T16:48:20.179Z,37.68
2022-08-01T16:51:22.540Z,38.36
2022-08-01T16:54:26.424Z,38.58
2022-08-01T16:57:32.963Z,38.91
2022-08-01T17:00:43.164Z,39.39
2022-08-01T17:03:52.610Z,38.90
2022-08-01T17:06:56.748Z,39.25
2022-08-01T17:10:01.021Z,39.69
2022-08-01T17:13:03.731Z,40.44
2022-08-01T17:16:07.194Z,39.86
2022-08-01T17:19:10.177Z,40.77
2022-08-01T17:22:13.185Z,41.51
2022-08-01T17:25:16.244Z,41.67
2022-08-01T17:28:19.824Z,41.37
2022-08-01T17:31:22.583Z,41.65
2022-08-01T17:34:24.972Z,42.23
2022-08-01T17:37:27.614Z,42.87
2022-08-01T17:40:40.212Z,43.52
2022-08-01T17:43:43.670Z,44.26
2022-08-01T17:46:45.952Z,45.02
2022-08-01T17:49:56.775Z,44.77
2022-08-01T17:52:59.557Z,45.09
2022-08-01T17:56:05.553Z,45.49
2022-08-01T17:59:08.217Z,45.33
2022-08-01T18:02:11.092Z,45.04
2022-08-01T18:05:15.735Z,46.15
2022-08-01T18:08:18.665Z,46.49
2022-08-01T18:11:21.729Z,46.64
2022-08-01T18:14:40.175Z,47.68
2022-08-01T18:17:43.995Z,48.02
2022-08-01T18:20:49.444Z,48.62
2022-08-01T18:23:52.512Z,48.81
2022-08-01T18:26:55.177Z,49.87
2022-08-01T18:29:57.994Z,50.36
2022-08-01T18:33:00.316Z,50.59
2022-08-01T18:36:04.931Z,50.83
2022-08-01T18:39:10.403Z,52.02
2022-08-01T18:42:13.455Z,51.83
2022-08-01T18:45:15.798Z,52.57
2022-08-01T18:48:18.807Z,52.55
2022-08-01T18:51:21.147Z,52.85
2022-08-01T18:54:25.602Z,53.10
2022-08-01T18:57:27.959Z,53.37
2022-08-01T19:00:31.677Z,53.96
2022-08-01T19:03:34.345Z,54.19
2022-08-01T19:06:38.897Z,54.43
2022-08-01T19:09:42.912Z,54.21
2022-08-01T19:12:45.517Z,54.33
2022-08-01T19:15:48.663Z,54.72
2022-08-01T19:18:51.391Z,56.80
2022-08-01T19:21:54.284Z,56.83
2022-08-01T19:24:56.937Z,56.36
2022-08-01T19:27:59.898Z,56.27
2022-08-01T19:31:03.403Z,56.33
2022-08-01T19:34:06.005Z,56.52
2022-08-01T19:37:08.964Z,56.87
2022-08-01T19:40:12.659Z,57.04
2022-08-01T19:43:33.346Z,57.75
2022-08-01T19:46:38.871Z,57.99
2022-08-01T19:49:41.690Z,59.03
2022-08-01T19:52:44.673Z,59.34
2022-08-01T19:55:47.412Z,59.71
2022-08-01T19:58:52.644Z,59.80
2022-08-01T20:02:03.814Z,60.67
2022-08-01T20:05:06.800Z,61.37
2022-08-01T20:08:09.490Z,61.00
2022-08-01T20:11:14.652Z,61.61
2022-08-01T20:14:19.382Z,61.88
2022-08-01T20:17:23.046Z,62.71
2022-08-01T20:20:33.330Z,62.47
2022-08-01T20:23:39.403Z,63.22
2022-08-01T20:26:43.975Z,62.62
2022-08-01T20:29:49.613Z,61.67
2022-08-01T20:32:52.568Z,60.78
2022-08-01T20:36:02.298Z,60.33
2022-08-01T20:39:04.707Z,59.32
2022-08-01T20:42:11.486Z,58.86
2022-08-01T20:45:18.334Z,58.78
2022-08-01T20:48:22.125Z,58.90
2022-08-01T20:51:25.043Z,60.08
2022-08-01T20:54:29.379Z,58.98
2022-08-01T20:57:32.335Z,59.51
2022-08-01T21:00:35.393Z,60.37
2022-08-01T21:03:42.802Z,60.51
2022-08-01T21:06:55.847Z,60.42
2022-08-01T21:09:58.591Z,61.26
2022-08-01T21:13:01.680Z,60.50
2022-08-01T21:16:23.043Z,61.32
2022-08-01T21:19:27.976Z,61.73
2022-08-01T21:22:36.563Z,61.61
2022-08-01T21:25:41.614Z,61.28
2022-08-01T21:28:53.959Z,61.42
2022-08-01T21:32:12.922Z,61.84
2022-08-01T21:35:16.622Z,62.01
2022-08-01T21:38:22.308Z,62.31
2022-08-01T21:42:04.807Z,62.46
2022-08-01T21:44:48.648Z,62.94
2022-08-01T21:47:51.646Z,63.91
2022-08-01T21:50:58.975Z,63.70
2022-08-01T21:54:10.130Z,63.35
2022-08-01T21:57:23.707Z,63.79
2022-08-01T22:00:26.922Z,64.29
2022-08-01T22:03:39.941Z,64.75
2022-08-01T22:06:48.029Z,65.66
2022-08-01T22:09:51.297Z,66.47
2022-08-01T22:12:54.017Z,67.19
2022-08-01T22:15:57.323Z,67.92
2022-08-01T22:19:03.283Z,69.23
2022-08-01T22:22:42.465Z,69.29
2022-08-01T22:25:32.635Z,69.63
2022-08-01T22:28:36.179Z,69.53
2022-08-01T22:31:38.847Z,69.40
2022-08-01T22:34:41.479Z,69.58
2022-08-01T22:37:57.123Z,69.57
2022-08-01T22:41:00.083Z,69.35
2022-08-01T22:44:14.015Z,69.24
2022-08-01T22:47:26.085Z,69.92
2022-08-01T22:50:48.863Z,70.54
2022-08-01T22:54:09.764Z,71.15
2022-08-01T22:57:15.430Z,72.13
2022-08-01T23:00:18.371Z,72.43
2022-08-01T23:03:26.218Z,72.94
2022-08-01T23:06:40.446Z,73.06
2022-08-01T23:09:53.911Z,73.12
2022-08-01T23:12:57.684Z,72.80
2022-08-01T23:16:01.025Z,73.15
2022-08-01T23:19:03.919Z,73.09
2022-08-01T23:22:06.658Z,73.79
2022-08-01T23:25:11.017Z,73.59
2022-08-01T23:28:14.076Z,73.73
2022-08-01T23:31:17.605Z,74.74
2022-08-01T23:34:20.288Z,74.35
2022-08-01T23:37:22.949Z,74.27
2022-08-01T23:40:25.579Z,74.06
2022-08-01T23:43:28.143Z,74.95
2022-08-01T23:46:30.380Z,74.92
2022-08-01T23:49:33.141Z,74.86
2022-08-01T23:52:55.360Z,74.52
2022-08-01T23:56:02.736Z,75.08
2022-08-01T23:59:05.240Z,75.37
